Time;durP1;ratioP1;P1;durP2;ratioP2;P2;SDS_P1;SDS_P2;PMS_P1;PMS_P2;Temp;Humidity;BMP_temperature;BMP_pressure;BME280_temperature;BME280_humidity;BME280_pressure;Samples;Min_cycle;Max_cycle;Signal;HPM_P1;HPM_P2
2023/09/14 00:01:48;;;;;;;;;;;;;;;;;;5068350;28;20357;-66
2023/09/14 00:04:14;;;;;;;;;;;;;;;;;;5065944;28;19956;-66
2023/09/14 00:06:40;;;;;;;;;;;;;;;;;;5063341;28;19947;-66
2023/09/14 00:09:05;;;;;;;;;;;;;;;;;;5067055;28;20378;-66
2023/09/14 00:11:31;;;;;;;;;;;;;;;;;;5039947;28;19920;-66
2023/09/14 00:13:57;;;;;;;;;;;;;;;;;;5040220;28;20490;-66
2023/09/14 00:16:23;;;;;;;;;;;;;;;;;;5064413;28;19927;-66
2023/09/14 00:18:49;;;;;;;;;;;;;;;;;;5058465;28;19959;-65
2023/09/14 00:21:15;;;;;;;;;;;;;;;;;;5046147;28;19921;-66
2023/09/14 00:23:41;;;;;;;;;;;;;;;;;;5058118;28;19978;-66
2023/09/14 00:26:07;;;;;;;;;;;;;;;;;;5065075;28;20007;-65
2023/09/14 00:28:33;;;;;;;;;;;;;;;;;;5046433;28;19979;-65
2023/09/14 00:30:59;;;;;;;;;;;;;;;;;;5064846;28;20321;-66
2023/09/14 00:33:24;;;;;;;;;;;;;;;;;;5061478;28;20895;-65
2023/09/14 00:35:50;;;;;;;;;;;;;;;;;;5069712;28;19924;-66
2023/09/14 00:38:16;;;;;;;;;;;;;;;;;;5071699;28;20007;-65
2023/09/14 00:40:42;;;;;;;;;;;;;;;;;;5073293;28;19928;-65
2023/09/14 00:43:08;;;;;;;;;;;;;;;;;;5069911;28;19924;-65
2023/09/14 00:45:34;;;;;;;;;;;;;;;;;;5053291;28;19946;-65
2023/09/14 00:48:02;;;;;;;;;;;;;;;;;;5061364;28;19976;-65
2023/09/14 00:50:28;;;;;;;;;;;;;;;;;;5042636;28;19928;-65
2023/09/14 00:52:54;;;;;;;;;;;;;;;;;;5063657;28;19932;-66
2023/09/14 00:55:19;;;;;;;;;;;;;;;;;;5063533;28;20387;-65
2023/09/14 00:57:45;;;;;;;;;;;;;;;;;;5062714;28;19920;-65
2023/09/14 01:00:11;;;;;;;;;;;;;;;;;;5044087;28;19920;-65
2023/09/14 01:02:37;;;;;;;;;;;;;;;;;;5064426;28;19928;-65
2023/09/14 01:05:03;;;;;;;;;;;;;;;;;;5065607;28;19920;-65
2023/09/14 01:07:29;;;;;;;;;;;;;;;;;;5048940;28;19943;-64
2023/09/14 01:09:55;;;;;;;;;;;;;;;;;;5070479;28;20338;-65
2023/09/14 01:12:21;;;;;;;;;;;;;;;;;;5071226;28;19968;-65
2023/09/14 01:14:47;;;;;;;;;;;;;;;;;;5068791;28;20047;-65
2023/09/14 01:17:13;;;;;;;;;;;;;;;;;;5046418;28;19921;-65
2023/09/14 01:19:40;;;;;;;;;;;;;;;;;;5046127;28;20370;-65
2023/09/14 01:22:06;;;;;;;;;;;;;;;;;;5038688;28;20548;-64
2023/09/14 01:24:32;;;;;;;;;;;;;;;;;;5060429;23;20021;-60
2023/09/14 01:26:58;;;;;;;;;;;;;;;;;;5033059;28;20038;-60
2023/09/14 01:29:24;;;;;;;;;;;;;;;;;;5051632;28;19921;-60
2023/09/14 01:31:49;;;;;;;;;;;;;;;;;;5050049;28;19921;-60
2023/09/14 01:34:15;;;;;;;;;;;;;;;;;;5032417;28;19943;-60
2023/09/14 01:36:41;;;;;;;;;;;;;;;;;;5050151;28;19932;-60
2023/09/14 01:39:07;;;;;;;;;;;;;;;;;;5050074;28;20004;-60
2023/09/14 01:41:34;;;;;;;;;;;;;;;;;;5050104;28;20544;-59
2023/09/14 01:44:00;;;;;;;;;;;;;;;;;;5052171;28;19929;-59
2023/09/14 01:46:26;;;;;;;;;;;;;;;;;;5048668;28;19927;-60
2023/09/14 01:48:52;;;;;;;;;;;;;;;;;;5050491;28;19924;-60
2023/09/14 01:51:17;;;;;;;;;;;;;;;;;;5032916;28;19920;-59
2023/09/14 01:53:43;;;;;;;;;;;;;;;;;;5032373;28;19931;-60
2023/09/14 01:56:09;;;;;;;;;;;;;;;;;;5050629;28;19927;-60
2023/09/14 01:58:35;;;;;;;;;;;;;;;;;;5032289;28;19967;-60
2023/09/14 02:01:02;;;;;;;;;;;;;;;;;;5049341;28;19925;-60
2023/09/14 02:03:28;;;;;;;;;;;;;;;;;;5031851;28;20386;-60
2023/09/14 02:05:56;;;;;;;;;;;;;;;;;;5049354;28;19951;-60
2023/09/14 02:08:22;;;;;;;;;;;;;;;;;;5050652;28;19920;-60
2023/09/14 02:10:48;;;;;;;;;;;;;;;;;;5050696;28;20437;-60
2023/09/14 02:13:14;;;;;;;;;;;;;;;;;;5051098;28;19928;-60
2023/09/14 02:15:40;;;;;;;;;;;;;;;;;;5050825;28;20014;-60
2023/09/14 02:18:06;;;;;;;;;;;;;;;;;;5032628;28;20424;-60
2023/09/14 02:20:34;;;;;;;;;;;;;;;;;;5030950;28;19925;-60
2023/09/14 02:23:00;;;;;;;;;;;;;;;;;;5049366;28;19952;-60
2023/09/14 02:25:26;;;;;;;;;;;;;;;;;;5031244;28;19956;-60
2023/09/14 02:27:51;;;;;;;;;;;;;;;;;;5045749;28;19925;-60
2023/09/14 02:30:17;;;;;;;;;;;;;;;;;;5046308;28;19928;-60
2023/09/14 02:32:43;;;;;;;;;;;;;;;;;;5026519;28;19921;-60
2023/09/14 02:35:09;;;;;;;;;;;;;;;;;;5029033;28;19924;-60
2023/09/14 02:37:35;;;;;;;;;;;;;;;;;;5044754;28;19927;-60
2023/09/14 02:40:01;;;;;;;;;;;;;;;;;;5047899;28;19925;-60
2023/09/14 02:42:27;;;;;;;;;;;;;;;;;;5013483;28;19971;-59
2023/09/14 02:44:53;;;;;;;;;;;;;;;;;;5047619;28;19925;-60
2023/09/14 02:47:19;;;;;;;;;;;;;;;;;;5047997;28;19920;-60
2023/09/14 02:49:45;;;;;;;;;;;;;;;;;;5049672;28;20255;-60
2023/09/14 02:52:11;;;;;;;;;;;;;;;;;;5050070;28;20040;-60
2023/09/14 02:54:37;;;;;;;;;;;;;;;;;;5030791;28;19979;-60
2023/09/14 02:57:03;;;;;;;;;;;;;;;;;;5042378;28;20337;-60
2023/09/14 02:59:29;;;;;;;;;;;;;;;;;;5049483;28;19921;-60
2023/09/14 03:01:55;;;;;;;;;;;;;;;;;;5044566;28;19963;-60
2023/09/14 03:04:20;;;;;;;;;;;;;;;;;;5028721;28;19931;-60
2023/09/14 03:06:46;;;;;;;;;;;;;;;;;;5050328;28;19928;-60
2023/09/14 03:09:12;;;;;;;;;;;;;;;;;;5046499;28;19931;-60
2023/09/14 03:11:38;;;;;;;;;;;;;;;;;;5049213;28;19952;-60
2023/09/14 03:14:04;;;;;;;;;;;;;;;;;;5048093;28;19925;-60
2023/09/14 03:16:30;;;;;;;;;;;;;;;;;;5048803;28;19921;-60
2023/09/14 03:18:56;;;;;;;;;;;;;;;;;;5046905;28;19935;-60
2023/09/14 03:21:22;;;;;;;;;;;;;;;;;;5047806;28;20035;-60
2023/09/14 03:23:48;;;;;;;;;;;;;;;;;;5046786;28;20008;-60
2023/09/14 03:26:14;;;;;;;;;;;;;;;;;;5030606;28;19974;-60
2023/09/14 03:28:40;;;;;;;;;;;;;;;;;;5048427;28;20429;-60
2023/09/14 03:31:06;;;;;;;;;;;;;;;;;;5042061;28;19970;-60
2023/09/14 03:33:32;;;;;;;;;;;;;;;;;;5046062;28;19924;-60
2023/09/14 03:35:59;;;;;;;;;;;;;;;;;;5031547;28;19940;-60
2023/09/14 03:38:25;;;;;;;;;;;;;;;;;;5045419;28;19925;-60
2023/09/14 03:40:51;;;;;;;;;;;;;;;;;;5046219;28;19947;-60
2023/09/14 03:43:17;;;;;;;;;;;;;;;;;;5051224;28;19925;-60
2023/09/14 03:45:42;;;;;;;;;;;;;;;;;;5050228;28;19971;-60
2023/09/14 03:48:08;;;;;;;;;;;;;;;;;;5033462;28;19921;-60
2023/09/14 03:50:34;;;;;;;;;;;;;;;;;;5048952;28;19924;-60
2023/09/14 03:53:02;;;;;;;;;;;;;;;;;;5049385;28;19955;-60
2023/09/14 03:55:28;;;;;;;;;;;;;;;;;;5018631;28;19929;-60
2023/09/14 03:57:54;;;;;;;;;;;;;;;;;;5054302;28;19927;-60
2023/09/14 04:00:20;;;;;;;;;;;;;;;;;;5055173;28;19924;-60
2023/09/14 04:02:46;;;;;;;;;;;;;;;;;;5050709;28;19970;-60
2023/09/14 04:05:12;;;;;;;;;;;;;;;;;;5037007;28;20248;-60
2023/09/14 04:07:37;;;;;;;;;;;;;;;;;;5053876;28;19921;-60
2023/09/14 04:10:06;;;;;;;;;;;;;;;;;;5054545;28;19925;-60
2023/09/14 04:12:31;;;;;;;;;;;;;;;;;;5053194;28;20452;-60
2023/09/14 04:14:57;;;;;;;;;;;;;;;;;;5054337;28;19921;-60
2023/09/14 04:17:23;;;;;;;;;;;;;;;;;;5054206;28;19928;-60
2023/09/14 04:19:49;;;;;;;;;;;;;;;;;;5048768;28;19921;-60
2023/09/14 04:22:15;;;;;;;;;;;;;;;;;;5053745;28;19936;-60
2023/09/14 04:24:41;;;;;;;;;;;;;;;;;;5052581;28;19928;-60
2023/09/14 04:27:07;;;;;;;;;;;;;;;;;;5050138;28;19928;-61
2023/09/14 04:29:33;;;;;;;;;;;;;;;;;;5053107;28;19925;-60
2023/09/14 04:31:59;;;;;;;;;;;;;;;;;;5053625;28;20397;-60
2023/09/14 04:34:25;;;;;;;;;;;;;;;;;;5032757;28;19921;-60
2023/09/14 04:36:51;;;;;;;;;;;;;;;;;;5048750;28;19929;-60
2023/09/14 04:39:17;;;;;;;;;;;;;;;;;;5050300;28;19971;-60
2023/09/14 04:41:43;;;;;;;;;;;;;;;;;;5052159;28;19984;-60
2023/09/14 04:44:09;;;;;;;;;;;;;;;;;;5053238;28;20007;-60
2023/09/14 04:46:35;;;;;;;;;;;;;;;;;;5034332;28;19951;-60
2023/09/14 04:49:01;;;;;;;;;;;;;;;;;;5053581;28;19925;-60
2023/09/14 04:51:26;;;;;;;;;;;;;;;;;;5046745;28;19952;-60
2023/09/14 04:53:52;;;;;;;;;;;;;;;;;;5049198;28;19921;-60
2023/09/14 04:56:19;;;;;;;;;;;;;;;;;;5031816;28;19940;-60
2023/09/14 04:58:45;;;;;;;;;;;;;;;;;;5040213;28;19964;-60
2023/09/14 05:01:10;;;;;;;;;;;;;;;;;;5047353;28;20358;-60
2023/09/14 05:03:36;;;;;;;;;;;;;;;;;;5050981;28;19925;-60
2023/09/14 05:06:02;;;;;;;;;;;;;;;;;;5045581;28;20069;-60
2023/09/14 05:08:28;;;;;;;;;;;;;;;;;;5021082;28;19925;-60
2023/09/14 05:10:54;;;;;;;;;;;;;;;;;;5022657;28;19928;-60
2023/09/14 05:13:20;;;;;;;;;;;;;;;;;;5046484;28;19999;-60
2023/09/14 05:15:46;;;;;;;;;;;;;;;;;;5041251;28;19928;-60
2023/09/14 05:18:12;;;;;;;;;;;;;;;;;;5045253;28;19924;-60
2023/09/14 05:20:38;;;;;;;;;;;;;;;;;;5031490;28;19924;-60
2023/09/14 05:23:04;;;;;;;;;;;;;;;;;;5033680;28;19947;-60
2023/09/14 05:25:30;;;;;;;;;;;;;;;;;;5048200;28;19921;-60
2023/09/14 05:27:55;;;;;;;;;;;;;;;;;;5051796;28;20007;-60
2023/09/14 05:30:23;;;;;;;;;;;;;;;;;;5027128;28;19925;-60
2023/09/14 05:32:49;;;;;;;;;;;;;;;;;;5034783;28;20576;-60
2023/09/14 05:35:15;;;;;;;;;;;;;;;;;;5050582;28;19927;-59
2023/09/14 05:37:41;;;;;;;;;;;;;;;;;;5034079;28;19925;-60
2023/09/14 05:40:12;;;;;;;;;;;;;;;;;;5051750;28;19931;-60
2023/09/14 05:42:37;;;;;;;;;;;;;;;;;;5040140;28;19925;-60
2023/09/14 05:45:03;;;;;;;;;;;;;;;;;;5051518;28;19931;-60
2023/09/14 05:47:29;;;;;;;;;;;;;;;;;;5021475;28;19924;-60
2023/09/14 05:49:55;;;;;;;;;;;;;;;;;;5033748;28;19920;-60
2023/09/14 05:52:21;;;;;;;;;;;;;;;;;;5049894;28;19991;-60
2023/09/14 05:54:47;;;;;;;;;;;;;;;;;;5052621;28;20389;-60
2023/09/14 05:57:14;;;;;;;;;;;;;;;;;;5050219;28;20003;-61
2023/09/14 05:59:40;;;;;;;;;;;;;;;;;;5052603;28;19928;-61
2023/09/14 06:02:05;;;;;;;;;;;;;;;;;;5047243;28;19925;-61
2023/09/14 06:04:31;;;;;;;;;;;;;;;;;;5049584;28;19971;-61
2023/09/14 06:06:57;;;;;;;;;;;;;;;;;;5049210;28;19921;-60
2023/09/14 06:09:23;;;;;;;;;;;;;;;;;;5051316;28;19920;-61
2023/09/14 06:11:49;;;;;;;;;;;;;;;;;;5030916;28;19964;-61
2023/09/14 06:14:15;;;;;;;;;;;;;;;;;;5048968;28;19925;-63
2023/09/14 06:16:41;;;;;;;;;;;;;;;;;;5046250;28;20472;-60
2023/09/14 06:19:07;;;;;;;;;;;;;;;;;;5041705;28;19920;-61
2023/09/14 06:21:33;;;;;;;;;;;;;;;;;;5041816;28;20078;-61
2023/09/14 06:23:58;;;;;;;;;;;;;;;;;;5044295;28;19929;-61
2023/09/14 06:26:24;;;;;;;;;;;;;;;;;;5043168;28;19928;-61
2023/09/14 06:28:50;;;;;;;;;;;;;;;;;;5044506;28;19960;-61
2023/09/14 06:31:16;;;;;;;;;;;;;;;;;;5050496;28;19920;-61
2023/09/14 06:33:42;;;;;;;;;;;;;;;;;;5027265;28;20282;-61
2023/09/14 06:36:08;;;;;;;;;;;;;;;;;;5045341;28;19964;-61
2023/09/14 06:38:34;;;;;;;;;;;;;;;;;;5041535;28;19928;-61
2023/09/14 06:41:00;;;;;;;;;;;;;;;;;;5050426;28;19933;-61
2023/09/14 06:43:26;;;;;;;;;;;;;;;;;;5032340;28;19936;-61
2023/09/14 06:45:52;;;;;;;;;;;;;;;;;;5051057;28;19932;-61
2023/09/14 06:48:18;;;;;;;;;;;;;;;;;;5048529;28;20379;-61
2023/09/14 06:50:44;;;;;;;;;;;;;;;;;;5030808;28;19991;-61
2023/09/14 06:53:09;;;;;;;;;;;;;;;;;;5048108;28;20007;-61
2023/09/14 06:55:36;;;;;;;;;;;;;;;;;;5049270;28;19920;-61
2023/09/14 06:58:02;;;;;;;;;;;;;;;;;;5031749;28;20003;-61
2023/09/14 07:00:28;;;;;;;;;;;;;;;;;;5030911;28;19929;-61
2023/09/14 07:02:54;;;;;;;;;;;;;;;;;;5048552;28;19932;-61
2023/09/14 07:05:20;;;;;;;;;;;;;;;;;;5048418;28;20002;-61
2023/09/14 07:07:46;;;;;;;;;;;;;;;;;;5048445;28;19925;-61
2023/09/14 07:10:12;;;;;;;;;;;;;;;;;;5049770;28;19928;-61
2023/09/14 07:12:37;;;;;;;;;;;;;;;;;;5048179;28;20313;-61
2023/09/14 07:15:03;;;;;;;;;;;;;;;;;;5049567;28;19944;-61
2023/09/14 07:17:29;;;;;;;;;;;;;;;;;;5045069;28;20642;-62
2023/09/14 07:19:55;;;;;;;;;;;;;;;;;;5050205;28;19925;-61
2023/09/14 07:22:21;;;;;;;;;;;;;;;;;;5045498;28;19929;-62
2023/09/14 07:24:47;;;;;;;;;;;;;;;;;;5047256;28;19929;-61
2023/09/14 07:27:13;;;;;;;;;;;;;;;;;;5047376;28;19925;-61
2023/09/14 07:29:39;;;;;;;;;;;;;;;;;;5012773;28;19925;-62
2023/09/14 07:32:05;;;;;;;;;;;;;;;;;;5035187;28;19927;-61
2023/09/14 07:34:31;;;;;;;;;;;;;;;;;;5055682;28;19931;-61
2023/09/14 07:36:57;;;;;;;;;;;;;;;;;;5056497;28;19968;-61
2023/09/14 07:39:23;;;;;;;;;;;;;;;;;;5055141;28;19924;-61
2023/09/14 07:41:49;;;;;;;;;;;;;;;;;;5056601;28;19924;-61
2023/09/14 07:44:15;;;;;;;;;;;;;;;;;;5055240;28;19921;-61
2023/09/14 07:46:41;;;;;;;;;;;;;;;;;;5055245;28;20309;-61
2023/09/14 07:49:07;;;;;;;;;;;;;;;;;;5055421;28;19936;-61
2023/09/14 07:51:33;;;;;;;;;;;;;;;;;;5047474;28;19960;-61
2023/09/14 07:54:00;;;;;;;;;;;;;;;;;;5053140;28;19993;-61
2023/09/14 07:56:26;;;;;;;;;;;;;;;;;;5038499;28;20019;-61
2023/09/14 07:58:53;;;;;;;;;;;;;;;;;;5053669;28;19932;-61
2023/09/14 08:01:19;;;;;;;;;;;;;;;;;;5055910;28;19921;-61
2023/09/14 08:03:45;;;;;;;;;;;;;;;;;;5020223;28;21704;-61
2023/09/14 08:06:11;;;;;;;;;;;;;;;;;;5034874;28;19964;-61
2023/09/14 08:08:37;;;;;;;;;;;;;;;;;;5038201;28;19977;-61
2023/09/14 08:11:03;;;;;;;;;;;;;;;;;;5053630;28;19925;-61
2023/09/14 08:13:28;;;;;;;;;;;;;;;;;;5052575;28;19936;-61
2023/09/14 08:15:56;;;;;;;;;;;;;;;;;;5054809;28;21296;-61
2023/09/14 08:18:22;;;;;;;;;;;;;;;;;;5057366;28;20004;-61
2023/09/14 08:20:48;;;;;;;;;;;;;;;;;;5056156;28;19925;-61
2023/09/14 08:23:15;;;;;;;;;;;;;;;;;;5018884;28;19924;-61
2023/09/14 08:25:45;;;;;;;;;;;;;;;;;;5057003;28;19935;-61
2023/09/14 08:28:11;;;;;;;;;;;;;;;;;;5038342;28;19960;-61
2023/09/14 08:30:38;;;;;;;;;;;;;;;;;;5046443;28;19967;-61
2023/09/14 08:33:04;;;;;;;;;;;;;;;;;;5056234;28;19928;-61
2023/09/14 08:35:31;;;;;;;;;;;;;;;;;;5056168;28;19928;-61
2023/09/14 08:37:57;;;;;;;;;;;;;;;;;;5056504;28;19978;-61
2023/09/14 08:40:23;;;;;;;;;;;;;;;;;;5054570;28;19920;-61
2023/09/14 08:42:49;;;;;;;;;;;;;;;;;;5051763;28;20264;-61
2023/09/14 08:45:15;;;;;;;;;;;;;;;;;;5049625;28;20096;-61
2023/09/14 08:47:41;;;;;;;;;;;;;;;;;;5048830;28;19921;-61
2023/09/14 08:50:07;;;;;;;;;;;;;;;;;;5036955;28;19921;-61
2023/09/14 08:52:33;;;;;;;;;;;;;;;;;;5026433;28;20314;-61
2023/09/14 08:54:58;;;;;;;;;;;;;;;;;;5024243;28;19971;-61
2023/09/14 08:57:24;;;;;;;;;;;;;;;;;;5047214;28;19925;-61
2023/09/14 08:59:51;;;;;;;;;;;;;;;;;;5041405;28;19940;-61
2023/09/14 09:02:17;;;;;;;;;;;;;;;;;;5043737;28;19964;-61
2023/09/14 09:04:43;;;;;;;;;;;;;;;;;;5029562;28;19929;-61
2023/09/14 09:07:09;;;;;;;;;;;;;;;;;;5045953;28;20348;-61
2023/09/14 09:09:36;;;;;;;;;;;;;;;;;;5032422;28;19921;-61
2023/09/14 09:12:02;;;;;;;;;;;;;;;;;;5044731;28;19987;-61
2023/09/14 09:14:28;;;;;;;;;;;;;;;;;;5046406;28;20360;-61
2023/09/14 09:16:53;;;;;;;;;;;;;;;;;;5028658;28;19931;-61
2023/09/14 09:19:19;;;;;;;;;;;;;;;;;;5048139;28;20275;-61
2023/09/14 09:21:46;;;;;;;;;;;;;;;;;;5050051;28;20015;-61
2023/09/14 09:24:15;;;;;;;;;;;;;;;;;;5033302;28;19987;-61
2023/09/14 09:26:41;;;;;;;;;;;;;;;;;;5032182;28;19973;-61
2023/09/14 09:29:07;;;;;;;;;;;;;;;;;;5032161;28;19928;-61
2023/09/14 09:31:33;;;;;;;;;;;;;;;;;;5050500;28;19929;-61
2023/09/14 09:34:01;;;;;;;;;;;;;;;;;;5050734;28;19925;-61
2023/09/14 09:36:27;;;;;;;;;;;;;;;;;;5033519;28;19936;-61
2023/09/14 09:38:54;;;;;;;;;;;;;;;;;;5028273;28;20301;-61
2023/09/14 09:41:20;;;;;;;;;;;;;;;;;;5042248;28;19928;-61
2023/09/14 09:43:45;;;;;;;;;;;;;;;;;;5052802;28;19929;-62
2023/09/14 09:46:11;;;;;;;;;;;;;;;;;;5032278;28;20009;-61
2023/09/14 09:48:37;;;;;;;;;;;;;;;;;;5051091;28;19921;-61
2023/09/14 09:51:03;;;;;;;;;;;;;;;;;;5052446;28;19928;-62
2023/09/14 09:53:29;;;;;;;;;;;;;;;;;;5034401;28;19925;-62
2023/09/14 09:55:55;;;;;;;;;;;;;;;;;;5051721;28;19935;-62
2023/09/14 09:58:21;;;;;;;;;;;;;;;;;;5032831;28;19924;-62
2023/09/14 10:00:49;;;;;;;;;;;;;;;;;;5050565;28;20251;-62
2023/09/14 10:03:14;;;;;;;;;;;;;;;;;;5033673;28;20390;-61
2023/09/14 10:05:40;;;;;;;;;;;;;;;;;;5031940;28;19966;-62
2023/09/14 10:08:06;;;;;;;;;;;;;;;;;;5048715;28;19952;-61
2023/09/14 10:10:33;;;;;;;;;;;;;;;;;;5029746;28;19924;-62
2023/09/14 10:12:59;;;;;;;;;;;;;;;;;;5046074;28;19921;-61
2023/09/14 10:15:25;;;;;;;;;;;;;;;;;;5048484;28;20329;-61
2023/09/14 10:17:51;;;;;;;;;;;;;;;;;;5045738;28;19940;-61
2023/09/14 10:20:17;;;;;;;;;;;;;;;;;;5050968;28;19921;-62
2023/09/14 10:22:43;;;;;;;;;;;;;;;;;;5048079;28;19928;-62
2023/09/14 10:25:09;;;;;;;;;;;;;;;;;;5031592;28;19983;-61
2023/09/14 10:27:35;;;;;;;;;;;;;;;;;;5050041;28;20366;-61
2023/09/14 10:30:01;;;;;;;;;;;;;;;;;;5051381;28;19927;-62
2023/09/14 10:32:27;;;;;;;;;;;;;;;;;;5050029;28;20349;-62
2023/09/14 10:34:52;;;;;;;;;;;;;;;;;;5048086;28;19925;-61
2023/09/14 10:37:18;;;;;;;;;;;;;;;;;;5044462;28;20390;-61
2023/09/14 10:39:44;;;;;;;;;;;;;;;;;;5043424;28;19921;-62
2023/09/14 10:42:10;;;;;;;;;;;;;;;;;;5047907;28;20448;-62
2023/09/14 10:44:36;;;;;;;;;;;;;;;;;;5051675;28;19932;-62
2023/09/14 10:47:02;;;;;;;;;;;;;;;;;;5049924;28;20354;-60
2023/09/14 10:49:28;;;;;;;;;;;;;;;;;;5021090;28;19929;-61
2023/09/14 10:51:54;;;;;;;;;;;;;;;;;;5027820;28;20406;-61
2023/09/14 10:54:20;;;;;;;;;;;;;;;;;;5046743;28;19924;-61
2023/09/14 10:56:46;;;;;;;;;;;;;;;;;;5024651;28;19925;-61
2023/09/14 10:59:11;;;;;;;;;;;;;;;;;;5029051;28;19951;-61
2023/09/14 11:01:37;;;;;;;;;;;;;;;;;;5044827;28;19924;-61
2023/09/14 11:04:03;;;;;;;;;;;;;;;;;;5042748;28;20059;-63
2023/09/14 11:06:29;;;;;;;;;;;;;;;;;;5047369;28;19921;-61
2023/09/14 11:08:55;;;;;;;;;;;;;;;;;;5047622;28;19929;-61
2023/09/14 11:11:21;;;;;;;;;;;;;;;;;;5013487;28;19928;-61
2023/09/14 11:13:47;;;;;;;;;;;;;;;;;;5047432;28;19971;-61
2023/09/14 11:16:13;;;;;;;;;;;;;;;;;;5041011;28;20308;-61
2023/09/14 11:18:39;;;;;;;;;;;;;;;;;;5049648;28;20004;-61
2023/09/14 11:21:05;;;;;;;;;;;;;;;;;;5044621;28;20007;-61
2023/09/14 11:23:31;;;;;;;;;;;;;;;;;;5031718;28;20314;-61
2023/09/14 11:25:57;;;;;;;;;;;;;;;;;;5044749;28;19921;-61
2023/09/14 11:28:23;;;;;;;;;;;;;;;;;;5042108;28;19921;-61
2023/09/14 11:30:49;;;;;;;;;;;;;;;;;;5022389;28;19925;-61
2023/09/14 11:33:14;;;;;;;;;;;;;;;;;;5031805;28;19932;-62
2023/09/14 11:35:40;;;;;;;;;;;;;;;;;;5043619;28;19936;-61
2023/09/14 11:38:09;;;;;;;;;;;;;;;;;;5047127;28;19921;-61
2023/09/14 11:40:35;;;;;;;;;;;;;;;;;;5045379;28;19983;-61
2023/09/14 11:43:00;;;;;;;;;;;;;;;;;;5050621;28;20616;-61
2023/09/14 11:45:26;;;;;;;;;;;;;;;;;;5029020;28;19921;-61
2023/09/14 11:47:52;;;;;;;;;;;;;;;;;;5048095;28;19929;-60
2023/09/14 11:50:20;;;;;;;;;;;;;;;;;;5046936;28;19921;-61
2023/09/14 11:52:45;;;;;;;;;;;;;;;;;;5050558;28;19921;-60
2023/09/14 11:55:13;;;;;;;;;;;;;;;;;;5047710;28;19974;-60
2023/09/14 11:57:39;;;;;;;;;;;;;;;;;;5029553;28;19921;-60
2023/09/14 12:00:06;;;;;;;;;;;;;;;;;;5043702;28;19924;-61
2023/09/14 12:02:31;;;;;;;;;;;;;;;;;;5042066;28;20448;-61
2023/09/14 12:04:57;;;;;;;;;;;;;;;;;;5046143;28;19921;-60
2023/09/14 12:07:23;;;;;;;;;;;;;;;;;;5046040;28;19920;-60
2023/09/14 12:09:49;;;;;;;;;;;;;;;;;;5047611;28;19931;-60
2023/09/14 12:12:15;;;;;;;;;;;;;;;;;;5048629;28;19932;-60
2023/09/14 12:14:41;;;;;;;;;;;;;;;;;;5035511;28;20008;-60
2023/09/14 12:17:07;;;;;;;;;;;;;;;;;;5045331;28;19974;-61
2023/09/14 12:19:33;;;;;;;;;;;;;;;;;;5040918;28;19929;-60
2023/09/14 12:21:59;;;;;;;;;;;;;;;;;;5049041;28;19979;-61
2023/09/14 12:24:25;;;;;;;;;;;;;;;;;;5048670;28;20285;-61
2023/09/14 12:26:51;;;;;;;;;;;;;;;;;;5033434;28;19932;-60
2023/09/14 12:29:17;;;;;;;;;;;;;;;;;;5052713;28;19956;-60
2023/09/14 12:31:43;;;;;;;;;;;;;;;;;;5048826;28;20601;-60
2023/09/14 12:34:09;;;;;;;;;;;;;;;;;;5049804;28;19971;-61
2023/09/14 12:36:34;;;;;;;;;;;;;;;;;;5034326;28;21836;-60
2023/09/14 12:39:00;;;;;;;;;;;;;;;;;;5054258;28;19925;-60
2023/09/14 12:41:26;;;;;;;;;;;;;;;;;;5050305;28;19920;-60
2023/09/14 12:43:53;;;;;;;;;;;;;;;;;;5051919;28;20305;-60
2023/09/14 12:46:20;;;;;;;;;;;;;;;;;;5049925;28;19929;-61
2023/09/14 12:48:46;;;;;;;;;;;;;;;;;;5035044;28;19927;-60
2023/09/14 12:51:13;;;;;;;;;;;;;;;;;;5051425;28;19929;-60
2023/09/14 12:53:40;;;;;;;;;;;;;;;;;;5047455;28;19979;-60
2023/09/14 12:56:06;;;;;;;;;;;;;;;;;;5049709;28;19947;-60
2023/09/14 12:58:33;;;;;;;;;;;;;;;;;;5053273;28;19924;-60
2023/09/14 13:00:58;;;;;;;;;;;;;;;;;;5051255;28;20412;-61
2023/09/14 13:03:24;;;;;;;;;;;;;;;;;;5030128;28;19952;-61
2023/09/14 13:05:50;;;;;;;;;;;;;;;;;;5032705;28;19998;-61
2023/09/14 13:08:16;;;;;;;;;;;;;;;;;;5052716;28;19959;-61
2023/09/14 13:10:43;;;;;;;;;;;;;;;;;;5049822;28;19928;-61
2023/09/14 13:13:09;;;;;;;;;;;;;;;;;;5048635;28;19925;-61
2023/09/14 13:15:35;;;;;;;;;;;;;;;;;;5049368;28;20023;-61
2023/09/14 13:18:00;;;;;;;;;;;;;;;;;;5050796;28;20412;-61
2023/09/14 13:20:26;;;;;;;;;;;;;;;;;;5052506;28;20388;-61
2023/09/14 13:22:52;;;;;;;;;;;;;;;;;;5032940;28;20366;-61
2023/09/14 13:25:19;;;;;;;;;;;;;;;;;;5048428;28;19925;-61
2023/09/14 13:27:45;;;;;;;;;;;;;;;;;;5032937;28;19932;-61
2023/09/14 13:30:11;;;;;;;;;;;;;;;;;;5032375;28;19921;-61
2023/09/14 13:32:37;;;;;;;;;;;;;;;;;;5048317;28;20675;-61
2023/09/14 13:35:03;;;;;;;;;;;;;;;;;;5049043;28;19924;-61
2023/09/14 13:40:01;;;;;;;;;;;;;;;;;;5028744;28;19925;-61
2023/09/14 13:42:27;;;;;;;;;;;;;;;;;;5002656;28;19948;-61
2023/09/14 13:44:53;;;;;;;;;;;;;;;;;;5004310;28;19925;-61
2023/09/14 13:47:18;;;;;;;;;;;;;;;;;;5028396;28;19928;-61
2023/09/14 13:49:44;;;;;;;;;;;;;;;;;;5029854;28;19960;-61
2023/09/14 13:52:10;;;;;;;;;;;;;;;;;;5029814;28;19983;-61
2023/09/14 13:54:36;;;;;;;;;;;;;;;;;;5026999;28;19979;-61
2023/09/14 13:57:03;;;;;;;;;;;;;;;;;;5028401;28;19921;-61
2023/09/14 13:59:29;;;;;;;;;;;;;;;;;;5028018;28;19975;-61
2023/09/14 14:01:55;;;;;;;;;;;;;;;;;;5032146;28;19929;-61
2023/09/14 14:04:20;;;;;;;;;;;;;;;;;;5032217;28;19921;-61
2023/09/14 14:06:46;;;;;;;;;;;;;;;;;;5012552;28;19921;-61
2023/09/14 14:09:13;;;;;;;;;;;;;;;;;;5036992;28;20482;-61
2023/09/14 14:11:39;;;;;;;;;;;;;;;;;;5025155;28;19932;-61
2023/09/14 14:14:05;;;;;;;;;;;;;;;;;;5012242;28;19921;-61
2023/09/14 14:16:30;;;;;;;;;;;;;;;;;;5029911;28;19924;-61
2023/09/14 14:18:56;;;;;;;;;;;;;;;;;;5017274;28;19925;-61
2023/09/14 14:21:24;;;;;;;;;;;;;;;;;;5006352;28;19925;-61
2023/09/14 14:23:50;;;;;;;;;;;;;;;;;;5029529;28;19929;-61
2023/09/14 14:26:16;;;;;;;;;;;;;;;;;;5030319;28;19929;-61
2023/09/14 14:28:42;;;;;;;;;;;;;;;;;;5030502;28;20377;-61
2023/09/14 14:31:07;;;;;;;;;;;;;;;;;;5032416;28;19924;-61
2023/09/14 14:33:33;;;;;;;;;;;;;;;;;;5031406;28;19968;-61
2023/09/14 14:35:59;;;;;;;;;;;;;;;;;;5010946;28;19925;-61
2023/09/14 14:38:25;;;;;;;;;;;;;;;;;;5026788;28;20070;-61
2023/09/14 14:40:51;;;;;;;;;;;;;;;;;;5029699;28;19932;-61
2023/09/14 14:43:17;;;;;;;;;;;;;;;;;;5026893;28;20677;-61
2023/09/14 14:45:43;;;;;;;;;;;;;;;;;;5029223;28;20004;-61
2023/09/14 14:48:09;;;;;;;;;;;;;;;;;;5026210;28;20059;-61
2023/09/14 14:50:35;;;;;;;;;;;;;;;;;;5026542;28;20264;-61
2023/09/14 14:53:01;;;;;;;;;;;;;;;;;;5011350;28;19931;-61
2023/09/14 14:55:27;;;;;;;;;;;;;;;;;;5032401;28;19920;-61
2023/09/14 14:57:53;;;;;;;;;;;;;;;;;;5021659;28;19944;-61
2023/09/14 15:00:19;;;;;;;;;;;;;;;;;;5012402;28;19928;-62
2023/09/14 15:02:45;;;;;;;;;;;;;;;;;;5007034;28;19929;-61
2023/09/14 15:05:11;;;;;;;;;;;;;;;;;;5008084;28;19921;-61
2023/09/14 15:07:37;;;;;;;;;;;;;;;;;;5013730;28;19921;-62
2023/09/14 15:10:03;;;;;;;;;;;;;;;;;;5028700;28;20032;-61
2023/09/14 15:12:29;;;;;;;;;;;;;;;;;;5028633;28;19932;-61
2023/09/14 15:14:55;;;;;;;;;;;;;;;;;;5023943;28;22273;-61
2023/09/14 15:17:21;;;;;;;;;;;;;;;;;;5029805;28;20580;-62
2023/09/14 15:19:48;;;;;;;;;;;;;;;;;;5025958;28;19925;-61
2023/09/14 15:22:14;;;;;;;;;;;;;;;;;;5029677;28;20381;-64
2023/09/14 15:24:40;;;;;;;;;;;;;;;;;;4989678;28;19921;-64
2023/09/14 15:27:05;;;;;;;;;;;;;;;;;;5034321;28;20020;-64
2023/09/14 15:29:33;;;;;;;;;;;;;;;;;;5030851;28;19928;-65
2023/09/14 15:31:59;;;;;;;;;;;;;;;;;;5027764;28;19925;-65
2023/09/14 15:34:25;;;;;;;;;;;;;;;;;;5026768;28;20390;-65
2023/09/14 15:36:51;;;;;;;;;;;;;;;;;;5025271;28;19929;-65
2023/09/14 15:39:17;;;;;;;;;;;;;;;;;;5028621;28;20024;-65
2023/09/14 15:41:43;;;;;;;;;;;;;;;;;;5025820;28;19925;-65
2023/09/14 15:44:09;;;;;;;;;;;;;;;;;;5010830;28;19925;-65
2023/09/14 15:46:35;;;;;;;;;;;;;;;;;;5029586;28;19964;-65
2023/09/14 15:49:01;;;;;;;;;;;;;;;;;;4997380;28;19931;-65
2023/09/14 15:51:29;;;;;;;;;;;;;;;;;;5027100;28;20004;-65
2023/09/14 15:53:56;;;;;;;;;;;;;;;;;;5015463;28;19936;-65
2023/09/14 15:56:21;;;;;;;;;;;;;;;;;;5039356;28;19956;-65
2023/09/14 15:58:47;;;;;;;;;;;;;;;;;;5034125;28;19967;-66
2023/09/14 16:01:13;;;;;;;;;;;;;;;;;;5039203;28;19960;-65
2023/09/14 16:03:41;;;;;;;;;;;;;;;;;;5033678;28;19939;-65
2023/09/14 16:06:07;;;;;;;;;;;;;;;;;;5017597;28;19971;-66
2023/09/14 16:08:33;;;;;;;;;;;;;;;;;;5035644;28;19929;-65
2023/09/14 16:10:59;;;;;;;;;;;;;;;;;;5030022;28;19932;-63
2023/09/14 16:13:25;;;;;;;;;;;;;;;;;;5031721;28;19974;-64
2023/09/14 16:15:52;;;;;;;;;;;;;;;;;;5016496;28;19929;-64
2023/09/14 16:18:17;;;;;;;;;;;;;;;;;;4999145;28;19924;-63
2023/09/14 16:20:44;;;;;;;;;;;;;;;;;;5018094;28;20015;-65
2023/09/14 16:23:10;;;;;;;;;;;;;;;;;;5033899;28;20401;-63
2023/09/14 16:25:36;;;;;;;;;;;;;;;;;;5016106;28;19960;-63
2023/09/14 16:28:03;;;;;;;;;;;;;;;;;;5033369;28;20433;-63
2023/09/14 16:30:29;;;;;;;;;;;;;;;;;;5046729;28;19928;-64
2023/09/14 16:32:55;;;;;;;;;;;;;;;;;;5032773;28;19935;-64
2023/09/14 16:35:21;;;;;;;;;;;;;;;;;;5036130;28;19921;-64
2023/09/14 16:37:47;;;;;;;;;;;;;;;;;;5033344;28;19922;-64
2023/09/14 16:40:13;;;;;;;;;;;;;;;;;;5035030;28;19971;-64